Terminal Aerodrome Forecast
Issued by NWS

Home | Current Version | Previous Version | Text Only | Print | Product List | Glossary On
Versions: 1 2 3 4 5 6 7 8 9 10 11 12 13 14 15 16 17 18 19 20 21 22 23 24 25 26
000
FTAK31 PANC 032331
TAFAVD
TAF
PAVD 032331Z 0400/0424 00000KT 3SM -RASN BR SCT005 OVC020
      TEMPO 0400/0404 1 1/2SM -RASN BR OVC015
     FM041200 00000KT 5SM -SHRA BKN025 OVC040
     FM041800 VRB03KT P6SM -SHRA SCT030 OVC050
      AMD LTD TO CLD VIS AND WIND=

USA.gov is the U.S. government's official web portal to all federal, state and local government web resources and services.